createdAt,value
2023-11-12T00:01:36.915Z,84.39
2023-11-12T00:04:38.731Z,84.18
2023-11-12T00:07:41.453Z,84.08
2023-11-12T00:10:43.286Z,84.69
2023-11-12T00:13:44.983Z,84.40
2023-11-12T00:16:49.313Z,84.42
2023-11-12T00:19:51.626Z,84.15
2023-11-12T00:22:53.365Z,83.92
2023-11-12T00:25:55.783Z,84.00
2023-11-12T00:28:57.553Z,84.39
2023-11-12T00:31:59.538Z,84.26
2023-11-12T00:35:02.126Z,84.43
2023-11-12T00:38:04.293Z,84.50
2023-11-12T00:41:06.088Z,84.52
2023-11-12T00:44:08.105Z,84.27
2023-11-12T00:47:10.116Z,84.17
2023-11-12T00:50:11.773Z,84.19
2023-11-12T00:53:13.481Z,84.12
2023-11-12T00:56:15.716Z,84.00
2023-11-12T00:59:17.420Z,83.93
2023-11-12T01:02:21.091Z,84.00
2023-11-12T01:05:22.848Z,83.90
2023-11-12T01:08:24.545Z,83.92
2023-11-12T01:11:26.467Z,83.96
2023-11-12T01:14:28.179Z,83.89
2023-11-12T01:17:30.230Z,83.94
2023-11-12T01:20:31.911Z,84.02
2023-11-12T01:23:33.494Z,83.94
2023-11-12T01:26:35.259Z,83.83
2023-11-12T01:29:36.831Z,83.80
2023-11-12T01:32:38.528Z,83.94
2023-11-12T01:35:40.249Z,83.94
2023-11-12T01:38:41.977Z,83.91
2023-11-12T01:41:43.998Z,83.95
2023-11-12T01:44:46.688Z,84.08
2023-11-12T01:47:48.676Z,83.97
2023-11-12T01:50:51.424Z,83.81
2023-11-12T01:53:53.853Z,83.81
2023-11-12T01:56:55.688Z,83.86
2023-11-12T01:59:57.428Z,83.85
2023-11-12T02:02:59.727Z,83.96
2023-11-12T02:06:05.383Z,83.92
2023-11-12T02:09:07.060Z,83.88
2023-11-12T02:12:09.276Z,83.90
2023-11-12T02:15:11.602Z,84.04
2023-11-12T02:18:13.402Z,84.12
2023-11-12T02:21:15.119Z,84.04
2023-11-12T02:24:16.908Z,84.10
2023-11-12T02:27:18.742Z,84.27
2023-11-12T02:30:20.668Z,84.28
2023-11-12T02:33:22.676Z,84.22
2023-11-12T02:36:24.384Z,84.25
2023-11-12T02:39:26.149Z,84.13
2023-11-12T02:42:28.005Z,84.08
2023-11-12T02:45:29.960Z,84.08
2023-11-12T02:49:03.224Z,84.11
2023-11-12T02:52:04.928Z,83.99
2023-11-12T02:55:07.072Z,84.22
2023-11-12T02:58:08.685Z,84.14
2023-11-12T03:01:10.662Z,84.26
2023-11-12T03:04:12.494Z,84.01
2023-11-12T03:07:14.384Z,84.21
2023-11-12T03:10:16.061Z,84.18
2023-11-12T03:13:17.797Z,84.11
2023-11-12T03:16:19.495Z,84.11
2023-11-12T03:19:21.049Z,84.17
2023-11-12T03:22:22.811Z,84.22
2023-11-12T03:25:24.359Z,84.42
2023-11-12T03:28:26.253Z,84.45
2023-11-12T03:31:28.195Z,84.49
2023-11-12T03:34:29.898Z,84.32
2023-11-12T03:37:31.990Z,84.47
2023-11-12T03:40:33.650Z,84.30
2023-11-12T03:43:35.206Z,84.19
2023-11-12T03:46:37.110Z,84.25
2023-11-12T03:49:39.622Z,84.35
2023-11-12T03:52:41.355Z,84.28
2023-11-12T03:55:42.861Z,84.39
2023-11-12T03:58:44.632Z,84.28
2023-11-12T04:01:46.153Z,84.34
2023-11-12T04:04:48.042Z,84.32
2023-11-12T04:07:50.682Z,84.31
2023-11-12T04:10:52.927Z,84.26
2023-11-12T04:13:54.641Z,84.14
2023-11-12T04:16:56.362Z,84.16
2023-11-12T04:19:57.877Z,84.13
2023-11-12T04:23:00.312Z,84.01
2023-11-12T04:26:02.257Z,84.23
2023-11-12T04:29:04.064Z,83.95
2023-11-12T04:32:06.055Z,84.08
2023-11-12T04:35:08.309Z,84.15
2023-11-12T04:38:09.995Z,83.98
2023-11-12T04:41:11.719Z,83.95
2023-11-12T04:44:13.241Z,83.95
2023-11-12T04:47:15.187Z,83.94
2023-11-12T04:50:16.875Z,83.89
2023-11-12T04:53:18.628Z,83.82
2023-11-12T04:56:20.220Z,83.85
2023-11-12T04:59:22.143Z,83.76
2023-11-12T05:02:23.919Z,83.74
2023-11-12T05:05:25.653Z,83.78
2023-11-12T05:08:28.240Z,83.81
2023-11-12T05:11:30.053Z,83.87
2023-11-12T05:14:31.705Z,83.98
2023-11-12T05:17:33.381Z,84.01
2023-11-12T05:20:35.236Z,84.01
2023-11-12T05:23:36.795Z,83.96
2023-11-12T05:26:38.550Z,84.02
2023-11-12T05:29:40.103Z,83.94
2023-11-12T05:32:41.775Z,83.92
2023-11-12T05:35:43.588Z,83.89
2023-11-12T05:38:45.205Z,83.89
2023-11-12T05:41:46.818Z,83.98
2023-11-12T05:44:48.805Z,83.78
2023-11-12T05:47:50.740Z,83.92
2023-11-12T05:50:52.370Z,83.94
2023-11-12T05:53:54.240Z,83.91
2023-11-12T05:56:55.730Z,83.88
2023-11-12T05:59:57.500Z,83.88
2023-11-12T06:02:59.401Z,83.83
2023-11-12T06:06:01.172Z,83.95
2023-11-12T06:09:02.841Z,83.85
2023-11-12T06:12:04.720Z,83.91
2023-11-12T06:15:06.362Z,83.83
2023-11-12T06:18:08.724Z,83.90
2023-11-12T06:21:10.489Z,84.30
2023-11-12T06:24:12.271Z,84.21
2023-11-12T06:27:14.098Z,84.56
2023-11-12T06:30:15.743Z,84.80
2023-11-12T06:33:17.494Z,84.88
2023-11-12T06:36:19.260Z,84.89
2023-11-12T06:39:20.884Z,85.64
2023-11-12T06:42:22.577Z,85.69
2023-11-12T06:45:24.363Z,85.75
2023-11-12T06:48:26.641Z,85.35
2023-11-12T06:51:28.463Z,85.28
2023-11-12T06:54:30.579Z,85.18
2023-11-12T06:57:32.290Z,84.89
2023-11-12T07:00:34.014Z,84.41
2023-11-12T07:03:38.959Z,84.65
2023-11-12T07:06:41.074Z,84.87
2023-11-12T07:09:43.688Z,85.07
2023-11-12T07:12:45.535Z,84.91
2023-11-12T07:15:47.440Z,84.90
2023-11-12T07:18:54.238Z,85.12
2023-11-12T07:21:56.697Z,84.94
2023-11-12T07:24:59.968Z,84.62
2023-11-12T07:28:02.710Z,84.67
2023-11-12T07:31:04.631Z,84.40
2023-11-12T07:34:06.185Z,84.45
2023-11-12T07:37:08.072Z,84.53
2023-11-12T07:40:10.848Z,84.63
2023-11-12T07:43:12.550Z,84.38
2023-11-12T07:46:14.449Z,84.43
2023-11-12T07:49:16.291Z,84.37
2023-11-12T07:52:18.106Z,84.44
2023-11-12T07:55:19.698Z,84.48
2023-11-12T07:58:21.585Z,84.89
2023-11-12T08:01:23.217Z,84.86
2023-11-12T08:04:25.101Z,84.99
2023-11-12T08:07:26.863Z,85.05
2023-11-12T08:10:28.469Z,85.31
2023-11-12T08:13:30.074Z,85.34
2023-11-12T08:16:31.915Z,84.84
2023-11-12T08:19:33.870Z,85.00
2023-11-12T08:22:35.526Z,84.60
2023-11-12T08:25:37.104Z,84.76
2023-11-12T08:28:38.761Z,84.76
2023-11-12T08:31:40.696Z,84.73
2023-11-12T08:34:42.538Z,84.65
2023-11-12T08:37:44.482Z,84.86
2023-11-12T08:40:46.220Z,84.71
2023-11-12T08:43:47.775Z,84.65
2023-11-12T08:46:52.423Z,84.89
2023-11-12T08:49:55.253Z,84.92
2023-11-12T08:52:57.078Z,85.50
2023-11-12T08:55:58.895Z,85.45
2023-11-12T08:59:00.824Z,85.67
2023-11-12T09:02:02.582Z,85.38
2023-11-12T09:05:04.876Z,85.34
2023-11-12T09:08:06.648Z,84.97
2023-11-12T09:11:09.020Z,85.14
2023-11-12T09:14:11.594Z,85.24
2023-11-12T09:17:13.331Z,84.92
2023-11-12T09:20:15.113Z,84.86
2023-11-12T09:23:16.795Z,84.95
2023-11-12T09:26:21.807Z,85.00
2023-11-12T09:29:23.574Z,85.21
2023-11-12T09:32:25.213Z,85.04
2023-11-12T09:35:26.982Z,84.99
2023-11-12T09:38:28.744Z,84.87
2023-11-12T09:41:30.366Z,84.98
2023-11-12T09:44:32.957Z,84.86
2023-11-12T09:47:46.531Z,85.07
2023-11-12T09:50:48.854Z,84.94
2023-11-12T09:53:51.651Z,84.98
2023-11-12T09:57:06.157Z,84.72
2023-11-12T10:00:11.618Z,84.93
2023-11-12T10:03:13.772Z,84.84
2023-11-12T10:06:15.510Z,84.87
2023-11-12T10:09:30.881Z,84.63
2023-11-12T10:12:32.600Z,84.53
2023-11-12T10:15:34.940Z,84.48
2023-11-12T10:18:36.957Z,84.39
2023-11-12T10:21:57.640Z,84.26
2023-11-12T10:24:59.726Z,84.38
2023-11-12T10:28:01.476Z,84.78
2023-11-12T10:31:03.347Z,85.05
2023-11-12T10:34:05.147Z,85.25
2023-11-12T10:37:10.331Z,85.00
2023-11-12T10:40:12.698Z,85.09
2023-11-12T10:43:14.586Z,85.10
2023-11-12T10:46:16.315Z,84.59
2023-11-12T10:49:18.041Z,84.39
2023-11-12T10:52:19.935Z,84.08
2023-11-12T10:55:22.935Z,83.66
2023-11-12T10:58:24.940Z,83.55
2023-11-12T11:01:26.990Z,83.16
2023-11-12T11:04:30.129Z,82.75
2023-11-12T11:07:31.874Z,82.09
2023-11-12T11:10:37.010Z,82.10
2023-11-12T11:13:39.052Z,81.80
2023-11-12T11:16:47.988Z,81.53
2023-11-12T11:19:49.783Z,81.66
2023-11-12T11:22:51.711Z,81.62
2023-11-12T11:26:33.640Z,81.27
2023-11-12T11:29:35.197Z,81.39
2023-11-12T11:32:37.421Z,81.27
2023-11-12T11:35:39.227Z,81.79
2023-11-12T11:38:41.010Z,81.35
2023-11-12T11:41:51.696Z,81.41
2023-11-12T11:45:00.680Z,80.62
2023-11-12T11:48:06.427Z,79.68
2023-11-12T11:51:34.302Z,79.53
2023-11-12T11:54:36.621Z,79.31
2023-11-12T11:57:46.315Z,78.45
2023-11-12T12:00:58.965Z,78.05
2023-11-12T12:04:04.465Z,76.82
2023-11-12T12:07:06.220Z,76.56
2023-11-12T12:10:08.373Z,77.42
2023-11-12T12:13:10.101Z,76.62
2023-11-12T12:16:11.830Z,77.07
2023-11-12T12:19:21.821Z,77.49
2023-11-12T12:22:29.280Z,76.54
2023-11-12T12:25:32.795Z,76.77
2023-11-12T12:28:34.527Z,77.03
2023-11-12T12:31:36.413Z,77.48
2023-11-12T12:34:42.123Z,77.92
2023-11-12T12:37:43.965Z,77.65
2023-11-12T12:40:50.773Z,76.59
2023-11-12T12:43:53.056Z,77.41
2023-11-12T12:46:54.882Z,77.38
2023-11-12T12:49:56.620Z,77.37
2023-11-12T12:53:15.037Z,77.07
2023-11-12T12:56:16.948Z,76.33
2023-11-12T12:59:18.731Z,76.82
2023-11-12T13:02:20.409Z,76.85
2023-11-12T13:05:22.236Z,75.81
2023-11-12T13:08:24.090Z,75.71
2023-11-12T13:11:25.679Z,75.74
2023-11-12T13:14:27.227Z,75.79
2023-11-12T13:17:28.878Z,74.88
2023-11-12T13:20:30.798Z,76.13
2023-11-12T13:23:33.441Z,75.27
2023-11-12T13:26:35.222Z,75.58
2023-11-12T13:29:36.949Z,75.49
2023-11-12T13:32:39.165Z,75.20
2023-11-12T13:35:41.020Z,75.58
2023-11-12T13:38:43.018Z,76.27
2023-11-12T13:41:44.838Z,76.46
2023-11-12T13:44:49.701Z,76.52
2023-11-12T13:47:52.685Z,76.75
2023-11-12T13:50:54.320Z,76.68
2023-11-12T13:53:56.062Z,76.36
2023-11-12T13:56:57.858Z,75.89
2023-11-12T13:59:59.713Z,76.07
2023-11-12T14:03:01.775Z,75.69
2023-11-12T14:06:04.524Z,75.78
2023-11-12T14:09:06.258Z,75.86
2023-11-12T14:12:08.483Z,75.90
2023-11-12T14:15:10.854Z,75.94
2023-11-12T14:18:13.257Z,76.37
2023-11-12T14:21:14.979Z,76.58
2023-11-12T14:24:16.805Z,76.36
2023-11-12T14:27:18.444Z,76.49
2023-11-12T14:30:20.459Z,76.26
2023-11-12T14:33:22.851Z,76.43
2023-11-12T14:36:24.632Z,75.90
2023-11-12T14:39:26.291Z,76.53
2023-11-12T14:42:28.035Z,76.68
2023-11-12T14:45:31.269Z,76.76
2023-11-12T14:48:33.332Z,76.79
2023-11-12T14:51:35.712Z,77.01
2023-11-12T14:54:37.503Z,76.96
2023-11-12T14:57:40.567Z,76.99
2023-11-12T15:00:42.393Z,76.91
2023-11-12T15:03:44.338Z,77.16
2023-11-12T15:06:46.160Z,77.10
2023-11-12T15:09:47.916Z,76.99
2023-11-12T15:12:50.319Z,77.01
2023-11-12T15:15:52.453Z,77.04
2023-11-12T15:18:54.295Z,76.90
2023-11-12T15:21:55.943Z,76.88
2023-11-12T15:24:58.515Z,77.02
2023-11-12T15:28:00.485Z,76.95
2023-11-12T15:31:02.258Z,77.18
2023-11-12T15:34:06.376Z,77.40
2023-11-12T15:37:09.965Z,77.52
2023-11-12T15:40:12.170Z,77.67
2023-11-12T15:43:13.927Z,77.65
2023-11-12T15:46:15.635Z,77.67
2023-11-12T15:49:17.448Z,77.74
2023-11-12T15:52:19.262Z,77.63
2023-11-12T15:55:20.876Z,77.75
2023-11-12T15:58:22.775Z,77.77
2023-11-12T16:01:24.566Z,78.01
2023-11-12T16:04:26.374Z,78.04
2023-11-12T16:07:28.112Z,78.05
2023-11-12T16:10:29.914Z,78.15
2023-11-12T16:13:31.522Z,78.14
2023-11-12T16:16:33.163Z,78.30
2023-11-12T16:19:34.836Z,78.35
2023-11-12T16:22:38.760Z,78.44
2023-11-12T16:25:40.848Z,78.36
2023-11-12T16:28:42.583Z,78.52
2023-11-12T16:31:44.225Z,78.59
2023-11-12T16:34:45.909Z,78.77
2023-11-12T16:37:47.557Z,78.72
2023-11-12T16:40:49.399Z,78.74
2023-11-12T16:43:51.280Z,78.71
2023-11-12T16:46:52.967Z,78.81
2023-11-12T16:49:55.154Z,78.75
2023-11-12T16:52:57.113Z,78.89
2023-11-12T16:55:58.846Z,78.91
2023-11-12T16:59:00.683Z,78.92
2023-11-12T17:02:02.313Z,78.87
2023-11-12T17:05:04.969Z,78.81
2023-11-12T17:08:06.755Z,78.73
2023-11-12T17:11:08.465Z,78.62
2023-11-12T17:14:10.465Z,78.55
2023-11-12T17:17:12.140Z,78.37
2023-11-12T17:20:13.997Z,78.10
2023-11-12T17:23:15.822Z,77.85
2023-11-12T17:26:17.618Z,77.55
2023-11-12T17:29:19.580Z,77.21
2023-11-12T17:32:21.404Z,77.24
2023-11-12T17:35:23.287Z,76.90
2023-11-12T17:38:25.086Z,76.76
2023-11-12T17:41:26.682Z,76.86
2023-11-12T17:44:28.438Z,76.18
2023-11-12T17:47:30.414Z,75.95
2023-11-12T17:50:32.114Z,76.38
2023-11-12T17:53:34.071Z,76.61
2023-11-12T17:56:35.962Z,76.64
2023-11-12T17:59:37.664Z,76.77
2023-11-12T18:02:40.124Z,76.91
2023-11-12T18:05:42.019Z,76.73
2023-11-12T18:08:43.855Z,77.05
2023-11-12T18:11:45.788Z,77.17
2023-11-12T18:14:47.308Z,76.95
2023-11-12T18:17:49.056Z,77.11
2023-11-12T18:20:55.671Z,77.00
2023-11-12T18:23:57.611Z,77.02
2023-11-12T18:26:59.236Z,77.21
2023-11-12T18:30:02.212Z,77.37
2023-11-12T18:33:04.015Z,77.13
2023-11-12T18:36:06.198Z,77.18
2023-11-12T18:39:07.907Z,76.99
2023-11-12T18:42:09.493Z,76.91
2023-11-12T18:45:12.480Z,76.88
2023-11-12T18:48:14.177Z,76.91
2023-11-12T18:51:15.979Z,76.90
2023-11-12T18:54:17.715Z,76.94
2023-11-12T18:57:19.440Z,76.81
2023-11-12T19:00:21.642Z,76.88
2023-11-12T19:03:23.588Z,76.79
2023-11-12T19:06:25.339Z,76.84
2023-11-12T19:09:27.217Z,76.95
2023-11-12T19:12:28.993Z,76.92
2023-11-12T19:15:30.835Z,76.94
2023-11-12T19:18:32.689Z,76.89
2023-11-12T19:21:34.455Z,76.86
2023-11-12T19:24:37.041Z,76.72
2023-11-12T19:27:38.744Z,76.89
2023-11-12T19:30:40.716Z,76.78
2023-11-12T19:33:45.728Z,76.81
2023-11-12T19:36:47.471Z,76.81
2023-11-12T19:39:49.229Z,76.95
2023-11-12T19:42:51.200Z,76.97
2023-11-12T19:45:53.051Z,76.98
2023-11-12T19:48:54.906Z,77.09
2023-11-12T19:51:56.676Z,77.11
2023-11-12T19:54:58.540Z,77.05
2023-11-12T19:58:00.269Z,77.16
2023-11-12T20:01:02.148Z,76.97
2023-11-12T20:04:05.742Z,76.77
2023-11-12T20:07:07.746Z,76.90
2023-11-12T20:10:09.757Z,76.88
2023-11-12T20:13:11.765Z,76.90
2023-11-12T20:16:19.375Z,77.02
2023-11-12T20:19:21.049Z,77.05
2023-11-12T20:22:22.839Z,77.14
2023-11-12T20:25:24.634Z,77.04
2023-11-12T20:28:26.424Z,77.19
2023-11-12T20:31:28.164Z,77.34
2023-11-12T20:34:29.649Z,77.27
2023-11-12T20:37:31.411Z,77.42
2023-11-12T20:40:33.173Z,77.36
2023-11-12T20:43:36.537Z,77.37
2023-11-12T20:46:38.761Z,77.39
2023-11-12T20:49:40.609Z,77.41
2023-11-12T20:52:42.432Z,77.39
2023-11-12T20:55:44.280Z,77.07
2023-11-12T20:58:46.069Z,77.17
2023-11-12T21:01:47.703Z,77.15
2023-11-12T21:04:49.505Z,77.55
2023-11-12T21:07:51.437Z,77.69
2023-11-12T21:10:53.381Z,77.87
2023-11-12T21:13:54.971Z,78.29
2023-11-12T21:16:56.681Z,78.50
2023-11-12T21:19:58.296Z,78.28
2023-11-12T21:23:00.170Z,78.56
2023-11-12T21:26:01.989Z,78.45
2023-11-12T21:29:03.638Z,78.23
2023-11-12T21:32:05.711Z,78.18
2023-11-12T21:35:07.761Z,78.36
2023-11-12T21:38:09.487Z,78.31
2023-11-12T21:41:11.468Z,79.20
2023-11-12T21:44:13.136Z,79.50
2023-11-12T21:47:20.790Z,79.40
2023-11-12T21:50:22.673Z,79.24
2023-11-12T21:53:24.329Z,79.71
2023-11-12T21:56:25.935Z,79.69
2023-11-12T21:59:31.142Z,79.36
2023-11-12T22:02:32.911Z,78.66
2023-11-12T22:05:34.794Z,78.51
2023-11-12T22:08:42.639Z,78.91
2023-11-12T22:11:45.840Z,78.95
2023-11-12T22:14:47.436Z,79.09
2023-11-12T22:17:49.449Z,79.63
2023-11-12T22:20:52.429Z,79.56
2023-11-12T22:23:54.141Z,78.90
2023-11-12T22:26:55.712Z,78.68
2023-11-12T22:29:57.323Z,78.68
2023-11-12T22:32:58.970Z,78.87
2023-11-12T22:36:00.584Z,78.88
2023-11-12T22:39:02.291Z,78.91
2023-11-12T22:42:04.079Z,79.49
2023-11-12T22:45:10.937Z,79.45
2023-11-12T22:48:12.755Z,79.69
2023-11-12T22:51:14.349Z,79.28
2023-11-12T22:54:16.017Z,79.09
2023-11-12T22:57:18.111Z,79.10
2023-11-12T23:00:24.876Z,78.88
2023-11-12T23:03:32.267Z,78.94
2023-11-12T23:06:34.000Z,79.12
2023-11-12T23:09:35.730Z,79.07
2023-11-12T23:12:37.865Z,79.28
2023-11-12T23:15:40.639Z,79.06
2023-11-12T23:18:42.305Z,79.17
2023-11-12T23:21:43.907Z,79.29
2023-11-12T23:24:45.680Z,79.13
2023-11-12T23:27:47.405Z,79.25
2023-11-12T23:30:49.186Z,79.42
2023-11-12T23:33:51.181Z,79.38
2023-11-12T23:36:53.050Z,79.38
2023-11-12T23:39:54.693Z,79.34
2023-11-12T23:42:56.408Z,79.37
2023-11-12T23:45:58.036Z,79.21
2023-11-12T23:48:59.945Z,79.20
2023-11-12T23:52:01.736Z,79.33
2023-11-12T23:55:05.283Z,79.23
2023-11-12T23:58:06.941Z,79.25
